Fisktrans — LIAB — position and weather

sailwx.info

Track history (hours):
 
Tides and Currents Weather Stations Pressure Air Temp Water Temp Dewpoint Dewpoint Depression Visibility Wind Speed Wind Dir Waves Ship Positions

Fisktrans

Last reported at 2016-Jul-24 16:33 UTC. Time now 2016-Jul-27 13:33 UTC.
Position N 69°18' E 017°58'.

Length 74 m; draft 6.5 m.

Type: Cargo ship. MMSI: 258034000.

Date/timePositionNaut miles runAvg speedWind from/ knotsBaromVisibWave heightAir tempDewpointWater temp
2016-Jul-24 16:33N 69°18' E 017°58'9 8.6
2016-Jul-24 15:33N 69°10' E 017°55'1010.4
2016-Jul-24 14:33N 69°06' E 017°28'1010.1
2016-Jul-24 13:32N 68°58' E 017°10'1510.2
2016-Jul-24 12:06N 68°45' E 016°47'77 4.6
2016-Jul-23 19:26N 67°53' E 014°15'31 4.4
2016-Jul-23 12:33N 67°26' E 013°37'9 8.4
2016-Jul-23 11:31N 67°20' E 013°51'9 9.6
2016-Jul-23 10:33N 67°17' E 014°13'4 3.7
2016-Jul-23 09:33N 67°17' E 014°23'2 2.0
2016-Jul-23 08:33N 67°17' E 014°18'1111.0
2016-Jul-23 07:33N 67°20' E 013°50'  
Track history (hours):
 
Tides and Currents Weather Stations Pressure Air Temp Water Temp Dewpoint Dewpoint Depression Visibility Wind Speed Wind Dir Waves Ship Positions

Fisktrans

Last reported at 2016-Jul-24 16:33 UTC. Time now 2016-Jul-27 13:33 UTC.
Position N 69°18' E 017°58'.

Length 74 m; draft 6.5 m.

Type: Cargo ship. MMSI: 258034000.

Date/timePositionNaut miles runAvg speedWind from/ knotsBaromVisibWave heightAir tempDewpointWater temp
2016-Jul-24 16:33N 69°18' E 017°58'9 8.6
2016-Jul-24 15:33N 69°10' E 017°55'1010.4
2016-Jul-24 14:33N 69°06' E 017°28'1010.1
2016-Jul-24 13:32N 68°58' E 017°10'1510.2
2016-Jul-24 12:06N 68°45' E 016°47'77 4.6
2016-Jul-23 19:26N 67°53' E 014°15'31 4.4
2016-Jul-23 12:33N 67°26' E 013°37'9 8.4
2016-Jul-23 11:31N 67°20' E 013°51'9 9.6
2016-Jul-23 10:33N 67°17' E 014°13'4 3.7
2016-Jul-23 09:33N 67°17' E 014°23'2 2.0
2016-Jul-23 08:33N 67°17' E 014°18'1111.0
2016-Jul-23 07:33N 67°20' E 013°50'  

Dump ship's entire track history